Time;durP1;ratioP1;P1;durP2;ratioP2;P2;SDS_P1;SDS_P2;PMS_P1;PMS_P2;Temp;Humidity;BMP_temperature;BMP_pressure;BME280_temperature;BME280_humidity;BME280_pressure;Samples;Min_cycle;Max_cycle;Signal;HPM_P1;HPM_P2
2021/09/10 00:00:25;;;;;;;14.23;6.63;;;;;;;-146.90;100.00;60518.97;5030161;28;20052;-69
2021/09/10 00:02:50;;;;;;;12.63;7.78;;;;;;;-146.90;100.00;60518.97;5029715;28;20124;-70
2021/09/10 00:05:15;;;;;;;14.18;9.13;;;;;;;-146.90;100.00;60518.97;5030431;28;20022;-70
2021/09/10 00:07:41;;;;;;;12.82;8.63;;;;;;;-146.90;100.00;60518.97;5029687;28;20387;-69
2021/09/10 00:10:07;;;;;;;15.00;8.85;;;;;;;-146.90;100.00;60518.97;5029817;28;20039;-70
2021/09/10 00:12:32;;;;;;;13.63;8.63;;;;;;;-146.90;100.00;60518.97;5029267;28;20024;-70
2021/09/10 00:14:57;;;;;;;19.45;10.02;;;;;;;-146.90;100.00;60518.97;5029818;28;20029;-70
2021/09/10 00:17:23;;;;;;;12.65;9.70;;;;;;;-146.90;100.00;60518.97;5028540;28;20441;-70
2021/09/10 00:19:48;;;;;;;18.17;10.82;;;;;;;-146.90;100.00;60518.97;5028594;28;20612;-70
2021/09/10 00:22:13;;;;;;;16.52;10.00;;;;;;;-146.90;100.00;60518.97;5029390;28;20117;-70
2021/09/10 00:24:39;;;;;;;15.43;11.15;;;;;;;-146.90;100.00;60518.97;5029843;28;20041;-70
2021/09/10 00:27:04;;;;;;;18.25;11.30;;;;;;;-146.90;100.00;60518.97;5034001;28;20030;-70
2021/09/10 00:29:30;;;;;;;17.80;11.85;;;;;;;-146.90;100.00;60518.97;5032807;28;20421;-72
2021/09/10 00:31:55;;;;;;;19.73;11.20;;;;;;;-146.90;100.00;60518.97;5033022;28;20108;-70
2021/09/10 00:34:20;;;;;;;20.00;11.02;;;;;;;-146.90;100.00;60518.97;5034009;28;20025;-70
2021/09/10 00:36:46;;;;;;;17.05;11.30;;;;;;;-146.90;100.00;60518.97;5034357;28;20025;-69
2021/09/10 00:39:17;;;;;;;15.02;12.07;;;;;;;-146.90;100.00;60518.97;5034252;28;20025;-70
2021/09/10 00:41:43;;;;;;;18.35;10.30;;;;;;;-146.90;100.00;60518.97;5033183;28;20124;-69
2021/09/10 00:44:08;;;;;;;18.45;11.25;;;;;;;-146.90;100.00;60518.97;5032622;28;20021;-69
2021/09/10 00:46:33;;;;;;;20.38;12.27;;;;;;;-146.90;100.00;60518.97;5034319;28;20311;-69
2021/09/10 00:48:59;;;;;;;16.35;12.35;;;;;;;-146.90;100.00;60518.97;5033430;28;20372;-70
2021/09/10 00:51:25;;;;;;;16.77;11.02;;;;;;;-146.90;100.00;60518.97;5032291;28;20033;-68
2021/09/10 00:53:50;;;;;;;17.25;12.98;;;;;;;-146.90;100.00;60518.97;5031961;28;20456;-68
2021/09/10 00:56:15;;;;;;;21.17;13.93;;;;;;;-146.90;100.00;60518.97;5033373;28;20022;-69
2021/09/10 00:58:41;;;;;;;18.92;12.18;;;;;;;-146.90;100.00;60518.97;5033280;28;20033;-69
2021/09/10 01:01:06;;;;;;;18.27;12.63;;;;;;;-146.90;100.00;60518.97;5033485;28;20017;-69
2021/09/10 01:03:32;;;;;;;19.75;13.60;;;;;;;-146.90;100.00;60518.97;5033033;28;20074;-69
2021/09/10 01:05:58;;;;;;;22.40;12.40;;;;;;;-146.90;100.00;60518.97;5033110;28;20033;-70
2021/09/10 01:08:23;;;;;;;17.88;12.30;;;;;;;-146.90;100.00;60518.97;5033005;28;20036;-69
2021/09/10 01:10:50;;;;;;;15.00;11.43;;;;;;;-146.90;100.00;60518.97;5032110;28;20017;-71
2021/09/10 01:13:16;;;;;;;22.85;13.05;;;;;;;-146.90;100.00;60518.97;5031986;28;20048;-70
2021/09/10 01:15:41;;;;;;;18.40;12.00;;;;;;;-146.90;100.00;60518.97;5032610;28;20478;-71
2021/09/10 01:18:07;;;;;;;19.65;13.35;;;;;;;-146.90;100.00;60518.97;5033011;28;20269;-70
2021/09/10 01:20:32;;;;;;;17.52;13.07;;;;;;;-146.90;100.00;60518.97;5032747;28;20531;-70
2021/09/10 01:22:57;;;;;;;22.67;12.27;;;;;;;-146.90;100.00;60518.97;5032740;28;20699;-70
2021/09/10 01:25:23;;;;;;;15.75;11.43;;;;;;;-146.90;100.00;60518.97;5031632;28;20026;-70
2021/09/10 01:27:59;;;;;;;17.40;13.18;;;;;;;-146.90;100.00;60518.97;5032788;28;20022;-70
2021/09/10 01:30:27;;;;;;;19.73;12.73;;;;;;;-146.90;100.00;60518.97;5031405;28;20139;-70
2021/09/10 01:32:52;;;;;;;18.58;12.07;;;;;;;-146.90;100.00;60518.97;5032929;28;20235;-70
2021/09/10 01:35:18;;;;;;;17.55;12.63;;;;;;;-146.90;100.00;60518.97;5032531;28;20103;-69
2021/09/10 01:37:43;;;;;;;18.83;12.20;;;;;;;-146.90;100.00;60518.97;5031285;28;20036;-70
2021/09/10 01:40:10;;;;;;;17.00;12.02;;;;;;;-146.90;100.00;60518.97;5032330;28;20099;-68
2021/09/10 01:42:36;;;;;;;18.48;13.25;;;;;;;-146.90;100.00;60518.97;5032793;28;20056;-72
2021/09/10 01:45:02;;;;;;;18.83;12.90;;;;;;;-146.90;100.00;60518.97;5032095;28;20056;-70
2021/09/10 01:47:27;;;;;;;19.02;11.35;;;;;;;-146.90;100.00;60518.97;5031251;28;20070;-71
2021/09/10 01:49:52;;;;;;;19.00;12.43;;;;;;;-146.90;100.00;60518.97;5032253;28;20400;-70
2021/09/10 01:52:18;;;;;;;18.45;13.23;;;;;;;-146.90;100.00;60518.97;5032195;28;20120;-71
2021/09/10 01:54:43;;;;;;;19.38;13.05;;;;;;;-146.90;100.00;60518.97;5030848;28;20021;-72
2021/09/10 01:57:09;;;;;;;18.60;12.75;;;;;;;-146.90;100.00;60518.97;5030605;28;20385;-71
2021/09/10 01:59:34;;;;;;;16.55;12.52;;;;;;;-146.90;100.00;60518.97;5032428;28;20115;-71
2021/09/10 02:01:59;;;;;;;22.30;13.48;;;;;;;-146.90;100.00;60518.97;5031980;28;20108;-70
2021/09/10 02:04:25;;;;;;;18.10;12.43;;;;;;;-146.90;100.00;60518.97;5032575;28;20466;-71
2021/09/10 02:06:50;;;;;;;18.30;12.43;;;;;;;-146.90;100.00;60518.97;5030641;28;20025;-70
2021/09/10 02:09:16;;;;;;;18.75;12.18;;;;;;;-146.90;100.00;60518.97;5031115;28;20024;-71
2021/09/10 02:11:41;;;;;;;16.35;12.20;;;;;;;-146.90;100.00;60518.97;5032035;28;20033;-70
2021/09/10 02:14:07;;;;;;;18.98;12.77;;;;;;;-146.90;100.00;60518.97;5032262;28;20025;-71
2021/09/10 02:16:32;;;;;;;15.98;12.43;;;;;;;-146.90;100.00;60518.97;5031605;28;20513;-70
2021/09/10 02:18:58;;;;;;;16.38;12.73;;;;;;;-146.90;100.00;60518.97;5030753;28;20030;-70
2021/09/10 02:21:23;;;;;;;19.77;12.82;;;;;;;-146.90;100.00;60518.97;5031487;28;20033;-71
2021/09/10 02:23:49;;;;;;;17.92;12.60;;;;;;;-146.90;100.00;60518.97;5031675;28;20037;-70
2021/09/10 02:26:14;;;;;;;19.10;12.73;;;;;;;-146.90;100.00;60518.97;5030922;28;20564;-71
2021/09/10 02:28:40;;;;;;;17.88;12.63;;;;;;;-146.90;100.00;60518.97;5031987;28;20021;-71
2021/09/10 02:31:05;;;;;;;15.85;12.32;;;;;;;-146.90;100.00;60518.97;5031664;28;20031;-70
2021/09/10 02:33:31;;;;;;;18.98;12.80;;;;;;;-146.90;100.00;60518.97;5031797;28;20021;-70
2021/09/10 02:35:56;;;;;;;19.63;12.85;;;;;;;-146.90;100.00;60518.97;5031995;28;20108;-70
2021/09/10 02:38:22;;;;;;;18.00;12.20;;;;;;;-146.90;100.00;60518.97;5030741;28;20390;-70
2021/09/10 02:40:47;;;;;;;20.65;12.05;;;;;;;-146.90;100.00;60518.97;5032249;28;20390;-71
2021/09/10 02:43:13;;;;;;;17.80;12.73;;;;;;;-146.90;100.00;60518.97;5031169;28;20073;-70
2021/09/10 02:45:38;;;;;;;16.20;11.93;;;;;;;-146.90;100.00;60518.97;5031430;28;20036;-70
2021/09/10 02:48:04;;;;;;;18.67;13.02;;;;;;;-146.90;100.00;60518.97;5030882;28;20036;-71
2021/09/10 02:50:29;;;;;;;15.98;11.98;;;;;;;-146.90;100.00;60518.97;5031203;28;20059;-71
2021/09/10 02:52:54;;;;;;;17.02;12.40;;;;;;;-146.90;100.00;60518.97;5030855;28;20033;-70
2021/09/10 02:55:20;;;;;;;15.60;11.90;;;;;;;-146.90;100.00;60518.97;5031375;28;20284;-70
2021/09/10 02:57:45;;;;;;;19.25;12.35;;;;;;;-146.90;100.00;60518.97;5030972;28;20108;-71
2021/09/10 03:00:11;;;;;;;17.65;12.35;;;;;;;-146.90;100.00;60518.97;5031116;28;20104;-70
2021/09/10 03:02:36;;;;;;;16.88;12.30;;;;;;;-146.90;100.00;60518.97;5029520;28;20029;-70
2021/09/10 03:05:03;;;;;;;17.83;12.57;;;;;;;-146.90;100.00;60518.97;5031115;28;20021;-70
2021/09/10 03:07:28;;;;;;;18.67;13.23;;;;;;;-146.90;100.00;60518.97;5030780;28;20025;-71
2021/09/10 03:09:54;;;;;;;17.85;12.93;;;;;;;-146.90;100.00;60518.97;5030851;28;20032;-71
2021/09/10 03:12:19;;;;;;;18.50;12.25;;;;;;;-146.90;100.00;60518.97;5029143;28;20026;-70
2021/09/10 03:14:44;;;;;;;15.95;12.63;;;;;;;-146.90;100.00;60518.97;5030897;28;20517;-70
2021/09/10 03:17:10;;;;;;;17.75;11.43;;;;;;;-146.90;100.00;60518.97;5030747;28;20075;-72
2021/09/10 03:19:35;;;;;;;19.02;12.82;;;;;;;-146.90;100.00;60518.97;5029222;28;20017;-70
2021/09/10 03:22:00;;;;;;;16.35;11.98;;;;;;;-146.90;100.00;60518.97;5030884;28;20033;-70
2021/09/10 03:24:26;;;;;;;17.75;12.27;;;;;;;-146.90;100.00;60518.97;5030158;28;20025;-70
2021/09/10 03:26:51;;;;;;;16.55;12.15;;;;;;;-146.90;100.00;60518.97;5030685;28;20021;-71
2021/09/10 03:29:16;;;;;;;17.25;12.23;;;;;;;-146.90;100.00;60518.97;5029087;28;20040;-71
2021/09/10 03:31:42;;;;;;;17.27;12.13;;;;;;;-146.90;100.00;60518.97;5029260;28;20037;-69
2021/09/10 03:34:07;;;;;;;18.85;12.90;;;;;;;-146.90;100.00;60518.97;5030161;28;20017;-69
2021/09/10 03:36:33;;;;;;;20.25;12.80;;;;;;;-146.90;100.00;60518.97;5030365;28;20022;-70
2021/09/10 03:38:58;;;;;;;18.45;11.88;;;;;;;-146.90;100.00;60518.97;5030176;28;20033;-70
2021/09/10 03:41:24;;;;;;;15.55;10.95;;;;;;;-146.90;100.00;60518.97;5029324;28;20017;-70
2021/09/10 03:43:52;;;;;;;15.73;12.25;;;;;;;-146.90;100.00;60518.97;5028758;28;20482;-72
2021/09/10 03:46:18;;;;;;;17.48;13.10;;;;;;;-146.90;100.00;60518.97;5030274;28;20033;-71
2021/09/10 03:48:44;;;;;;;15.85;12.57;;;;;;;-146.90;100.00;60518.97;5029951;28;20029;-71
2021/09/10 03:51:09;;;;;;;17.98;12.90;;;;;;;-146.90;100.00;60518.97;5030348;28;20167;-69
2021/09/10 03:53:34;;;;;;;20.23;12.88;;;;;;;-146.90;100.00;60518.97;5028496;28;20032;-70
2021/09/10 03:56:00;;;;;;;18.55;12.82;;;;;;;-146.90;100.00;60518.97;5030412;28;20032;-69
2021/09/10 03:58:25;;;;;;;17.42;12.88;;;;;;;-146.90;100.00;60518.97;5030530;28;20036;-69
2021/09/10 04:00:50;;;;;;;18.52;11.68;;;;;;;-146.90;100.00;60518.97;5029036;28;20105;-71
2021/09/10 04:03:15;;;;;;;19.85;12.05;;;;;;;-146.90;100.00;60518.97;5028646;28;20021;-70
2021/09/10 04:05:41;;;;;;;24.77;13.40;;;;;;;-146.90;100.00;60518.97;5029662;28;20030;-69
2021/09/10 04:08:06;;;;;;;18.17;12.27;;;;;;;-146.90;100.00;60518.97;5030281;28;20105;-69
2021/09/10 04:10:32;;;;;;;16.40;12.93;;;;;;;-146.90;100.00;60518.97;5028548;28;20052;-70
2021/09/10 04:12:57;;;;;;;18.30;12.50;;;;;;;-146.90;100.00;60518.97;5030145;28;20032;-71
2021/09/10 04:15:22;;;;;;;24.80;13.43;;;;;;;-146.90;100.00;60518.97;5029589;28;20021;-71
2021/09/10 04:17:48;;;;;;;17.02;12.43;;;;;;;-146.90;100.00;60518.97;5029798;28;20106;-69
2021/09/10 04:20:13;;;;;;;17.70;12.77;;;;;;;-146.90;100.00;60518.97;5028037;28;20017;-70
2021/09/10 04:22:41;;;;;;;19.77;13.45;;;;;;;-146.90;100.00;60518.97;5029561;28;20025;-70
2021/09/10 04:25:08;;;;;;;19.65;12.30;;;;;;;-146.90;100.00;60518.97;5029293;28;20022;-69
2021/09/10 04:27:33;;;;;;;18.38;11.30;;;;;;;-146.90;100.00;60518.97;5028597;28;20029;-69
2021/09/10 04:29:58;;;;;;;17.77;12.65;;;;;;;-146.90;100.00;60518.97;5029760;28;20026;-69
2021/09/10 04:32:24;;;;;;;16.30;12.20;;;;;;;-146.90;100.00;60518.97;5028877;28;20053;-70
2021/09/10 04:34:50;;;;;;;17.10;12.13;;;;;;;-146.90;100.00;60518.97;5029771;28;20553;-69
2021/09/10 04:37:15;;;;;;;17.35;12.35;;;;;;;-146.90;100.00;60518.97;5030522;28;20063;-70
2021/09/10 04:39:41;;;;;;;19.15;12.38;;;;;;;-146.90;100.00;60518.97;5029297;28;20052;-70
2021/09/10 04:42:06;;;;;;;18.52;12.93;;;;;;;-146.90;100.00;60518.97;5030107;28;20097;-70
2021/09/10 04:44:31;;;;;;;20.13;12.90;;;;;;;-146.90;100.00;60518.97;5028922;28;20509;-70
2021/09/10 04:46:57;;;;;;;18.10;12.52;;;;;;;-146.90;100.00;60518.97;5029507;28;20530;-72
2021/09/10 04:49:22;;;;;;;19.33;13.27;;;;;;;-146.90;100.00;60518.97;5029665;28;20107;-70
2021/09/10 04:51:48;;;;;;;18.83;12.48;;;;;;;-146.90;100.00;60518.97;5029336;28;20483;-70
2021/09/10 04:54:16;;;;;;;18.27;12.55;;;;;;;-146.90;100.00;60518.97;5029614;28;20045;-71
2021/09/10 04:56:42;;;;;;;22.50;12.32;;;;;;;-146.90;100.00;60518.97;5028302;28;20026;-72
2021/09/10 04:59:07;;;;;;;18.50;12.25;;;;;;;-146.90;100.00;60518.97;5029518;28;20029;-71
2021/09/10 05:01:33;;;;;;;18.38;13.13;;;;;;;-146.90;100.00;60518.97;5029282;28;20091;-69
2021/09/10 05:03:58;;;;;;;18.63;12.60;;;;;;;-146.90;100.00;60518.97;5029248;28;20032;-70
2021/09/10 05:06:24;;;;;;;19.90;12.90;;;;;;;-146.90;100.00;60518.97;5029157;28;20021;-70
2021/09/10 05:08:49;;;;;;;18.80;13.55;;;;;;;-146.90;100.00;60518.97;5029433;28;20026;-71
2021/09/10 05:11:14;;;;;;;18.00;13.02;;;;;;;-146.90;100.00;60518.97;5030475;28;20026;-70
2021/09/10 05:13:40;;;;;;;21.15;14.02;;;;;;;-146.90;100.00;60518.97;5032468;28;20370;-72
2021/09/10 05:16:05;;;;;;;22.20;12.82;;;;;;;-146.90;100.00;60518.97;5032526;28;20029;-71
2021/09/10 05:18:30;;;;;;;19.13;12.95;;;;;;;-146.90;100.00;60518.97;5032847;28;20453;-72
2021/09/10 05:20:56;;;;;;;19.92;11.95;;;;;;;-146.90;100.00;60518.97;5032853;28;20523;-70
2021/09/10 05:23:21;;;;;;;21.08;13.43;;;;;;;-146.90;100.00;60518.97;5032321;28;20040;-70
2021/09/10 05:25:46;;;;;;;23.38;13.48;;;;;;;-146.90;100.00;60518.97;5032653;28;20113;-70
2021/09/10 05:28:11;;;;;;;22.42;13.93;;;;;;;-146.90;100.00;60518.97;5032487;28;20028;-70
2021/09/10 05:30:37;;;;;;;18.02;13.23;;;;;;;-146.90;100.00;60518.97;5032530;28;20112;-71
2021/09/10 05:33:02;;;;;;;18.23;13.57;;;;;;;-146.90;100.00;60518.97;5032326;28;20112;-70
2021/09/10 05:35:28;;;;;;;22.05;13.25;;;;;;;-146.90;100.00;60518.97;5031490;28;20037;-71
2021/09/10 05:37:53;;;;;;;22.92;13.93;;;;;;;-146.90;100.00;60518.97;5039066;28;20024;-70
2021/09/10 05:40:18;;;;;;;18.52;13.45;;;;;;;-146.90;100.00;60518.97;5048903;28;20757;-71
2021/09/10 05:42:44;;;;;;;21.77;13.70;;;;;;;-146.90;100.00;60518.97;5051686;28;20518;-70
2021/09/10 05:45:09;;;;;;;21.92;14.27;;;;;;;-146.90;100.00;60518.97;5052860;28;20037;-70
2021/09/10 05:47:34;;;;;;;23.00;13.18;;;;;;;-146.90;100.00;60518.97;5052014;28;20017;-69
2021/09/10 05:50:00;;;;;;;23.45;13.57;;;;;;;-146.90;100.00;60518.97;5052886;28;20025;-71
2021/09/10 05:52:25;;;;;;;24.00;13.85;;;;;;;-146.90;100.00;60518.97;5033868;28;20472;-70
2021/09/10 05:54:50;;;;;;;19.95;13.50;;;;;;;-146.90;100.00;60518.97;5052233;28;20028;-71
2021/09/10 05:57:16;;;;;;;17.85;12.75;;;;;;;-146.90;100.00;60518.97;5052078;28;20029;-71
2021/09/10 05:59:41;;;;;;;20.00;12.70;;;;;;;-146.90;100.00;60518.97;5050335;28;20099;-70
2021/09/10 06:02:06;;;;;;;19.65;12.13;;;;;;;-146.90;100.00;60518.97;5051634;28;20043;-70
2021/09/10 06:04:32;;;;;;;19.10;12.95;;;;;;;-146.90;100.00;60518.97;5051346;28;20108;-71
2021/09/10 06:06:58;;;;;;;22.08;13.68;;;;;;;-146.90;100.00;60518.97;5052316;28;20051;-71
2021/09/10 06:09:23;;;;;;;21.38;13.23;;;;;;;-146.90;100.00;60518.97;5051609;28;20028;-72
2021/09/10 06:11:48;;;;;;;19.25;12.73;;;;;;;-146.90;100.00;60518.97;5051765;28;20064;-70
2021/09/10 06:14:13;;;;;;;21.35;12.35;;;;;;;-146.90;100.00;60518.97;5050970;28;20013;-72
2021/09/10 06:16:39;;;;;;;19.35;13.68;;;;;;;-146.90;100.00;60518.97;5049605;28;20433;-72
2021/09/10 06:19:04;;;;;;;19.60;13.40;;;;;;;-146.90;100.00;60518.97;5051000;28;20482;-70
2021/09/10 06:21:29;;;;;;;19.42;13.23;;;;;;;-146.90;100.00;60518.97;5051045;28;20032;-70
2021/09/10 06:23:55;;;;;;;19.38;13.55;;;;;;;-146.90;100.00;60518.97;5048421;28;20060;-70
2021/09/10 06:26:22;;;;;;;21.45;13.15;;;;;;;-146.90;100.00;60518.97;5050021;28;20017;-70
2021/09/10 06:28:48;;;;;;;19.67;12.90;;;;;;;-146.90;100.00;60518.97;5049594;28;20033;-69
2021/09/10 06:31:13;;;;;;;20.70;12.73;;;;;;;-146.90;100.00;60518.97;5051026;28;20501;-71
2021/09/10 06:33:39;;;;;;;19.17;13.05;;;;;;;-146.90;100.00;60518.97;5050948;28;20633;-70
2021/09/10 06:36:04;;;;;;;19.00;12.18;;;;;;;-146.90;100.00;60518.97;5051025;28;20032;-70
2021/09/10 06:38:29;;;;;;;20.83;12.38;;;;;;;-146.90;100.00;60518.97;5050764;28;20024;-72
2021/09/10 06:40:55;;;;;;;18.85;13.00;;;;;;;-146.90;100.00;60518.97;5050407;28;20271;-72
2021/09/10 06:43:20;;;;;;;19.73;12.38;;;;;;;-146.90;100.00;60518.97;5050779;28;20083;-71
2021/09/10 06:45:46;;;;;;;16.00;12.60;;;;;;;-146.90;100.00;60518.97;5050430;28;20033;-72
2021/09/10 06:48:12;;;;;;;21.08;12.40;;;;;;;-146.90;100.00;60518.97;5050156;28;20102;-70
2021/09/10 06:50:37;;;;;;;16.27;11.60;;;;;;;-146.90;100.00;60518.97;5030000;28;20479;-71
2021/09/10 06:53:03;;;;;;;17.35;11.75;;;;;;;-146.90;100.00;60518.97;5031540;28;20029;-71
2021/09/10 06:55:28;;;;;;;17.98;12.02;;;;;;;-146.90;100.00;60518.97;5029453;28;20637;-70
2021/09/10 06:57:53;;;;;;;15.02;11.40;;;;;;;-146.90;100.00;60518.97;5030639;28;20029;-70
2021/09/10 07:00:19;;;;;;;18.92;11.75;;;;;;;-146.90;100.00;60518.97;5030241;28;20038;-70
2021/09/10 07:02:44;;;;;;;17.38;11.43;;;;;;;-146.90;100.00;60518.97;5030522;28;20096;-71
2021/09/10 07:05:10;;;;;;;19.73;11.93;;;;;;;-146.90;100.00;60518.97;5030122;28;20037;-70
2021/09/10 07:07:35;;;;;;;18.73;11.02;;;;;;;-146.90;100.00;60518.97;5030652;28;20033;-70
2021/09/10 07:10:01;;;;;;;18.40;10.60;;;;;;;-146.90;100.00;60518.97;5030134;28;20029;-70
2021/09/10 07:12:27;;;;;;;17.83;10.98;;;;;;;-146.90;100.00;60518.97;5030125;28;20029;-71
2021/09/10 07:14:52;;;;;;;24.73;11.75;;;;;;;-146.90;100.00;60518.97;5030308;28;20045;-71
2021/09/10 07:17:17;;;;;;;16.88;11.00;;;;;;;-146.90;100.00;60518.97;5029724;28;20079;-71
2021/09/10 07:19:43;;;;;;;21.88;11.05;;;;;;;-146.90;100.00;60518.97;5030347;28;20339;-72
2021/09/10 07:22:08;;;;;;;18.02;10.32;;;;;;;-146.90;100.00;60518.97;5029973;28;20029;-70
2021/09/10 07:24:33;;;;;;;17.42;9.63;;;;;;;-146.90;100.00;60518.97;5029988;28;20139;-69
2021/09/10 07:26:58;;;;;;;18.02;10.27;;;;;;;-146.90;100.00;60518.97;5029635;28;20021;-71
2021/09/10 07:29:24;;;;;;;16.95;9.27;;;;;;;-146.90;100.00;60518.97;5029901;28;20033;-70
2021/09/10 07:31:50;;;;;;;15.43;9.48;;;;;;;-146.90;100.00;60518.97;5029767;28;20096;-71
2021/09/10 07:34:15;;;;;;;15.63;9.45;;;;;;;-146.90;100.00;60518.97;5029592;28;20533;-70
2021/09/10 07:36:41;;;;;;;14.95;9.05;;;;;;;-146.90;100.00;60518.97;5029971;28;20029;-71
2021/09/10 07:39:06;;;;;;;14.93;8.80;;;;;;;-146.90;100.00;60518.97;5030103;28;20116;-70
2021/09/10 07:41:32;;;;;;;16.08;8.65;;;;;;;-146.90;100.00;60518.97;5028424;28;20025;-71
2021/09/10 07:43:57;;;;;;;15.25;8.48;;;;;;;-146.90;100.00;60518.97;5028512;28;20026;-70
2021/09/10 07:46:23;;;;;;;13.60;8.10;;;;;;;-146.90;100.00;60518.97;5029635;28;20148;-70
2021/09/10 07:48:48;;;;;;;11.10;7.90;;;;;;;-146.90;100.00;60518.97;5030015;28;20025;-71
2021/09/10 07:51:13;;;;;;;12.38;8.57;;;;;;;-146.90;100.00;60518.97;5030277;28;20032;-72
2021/09/10 07:53:39;;;;;;;16.73;9.80;;;;;;;-146.90;100.00;60518.97;5030071;28;20026;-70
2021/09/10 07:56:04;;;;;;;17.95;10.13;;;;;;;-146.90;100.00;60518.97;5030148;28;20029;-72
2021/09/10 07:58:29;;;;;;;15.93;9.98;;;;;;;-146.90;100.00;60518.97;5029554;28;20040;-70
2021/09/10 08:00:55;;;;;;;16.23;10.48;;;;;;;-146.90;100.00;60518.97;5029547;28;20060;-71
2021/09/10 08:03:20;;;;;;;13.82;9.90;;;;;;;-146.90;100.00;60518.97;5029301;28;20029;-70
2021/09/10 08:05:45;;;;;;;13.73;10.93;;;;;;;-146.90;100.00;60518.97;5029435;28;20076;-71
2021/09/10 08:08:11;;;;;;;18.15;12.45;;;;;;;-146.90;100.00;60518.97;5029322;28;20033;-72
2021/09/10 08:10:36;;;;;;;15.43;12.82;;;;;;;-146.90;100.00;60518.97;5029688;28;20021;-71
2021/09/10 08:13:02;;;;;;;19.15;15.05;;;;;;;-146.90;100.00;60518.97;5029392;28;20021;-71
2021/09/10 08:15:27;;;;;;;19.45;14.02;;;;;;;-146.90;100.00;60518.97;5029387;28;20025;-71
2021/09/10 08:17:52;;;;;;;21.13;16.80;;;;;;;-146.90;100.00;60518.97;5029550;28;20025;-70
2021/09/10 08:20:18;;;;;;;18.98;16.35;;;;;;;-146.90;100.00;60518.97;5027988;28;20379;-70
2021/09/10 08:22:46;;;;;;;20.98;14.93;;;;;;;-146.90;100.00;60518.97;5027999;28;20435;-70
2021/09/10 08:25:11;;;;;;;17.08;14.00;;;;;;;-146.90;100.00;60518.97;5029506;28;20036;-70
2021/09/10 08:27:37;;;;;;;17.33;12.85;;;;;;;-146.90;100.00;60518.97;5029274;28;20029;-70
2021/09/10 08:30:04;;;;;;;18.10;14.07;;;;;;;-146.90;100.00;60518.97;5029069;28;20029;-70
2021/09/10 08:32:29;;;;;;;14.25;11.13;;;;;;;-146.90;100.00;60518.97;5027722;28;20029;-71
2021/09/10 08:34:55;;;;;;;14.00;10.65;;;;;;;-146.90;100.00;60518.97;5029460;28;20036;-70
2021/09/10 08:37:21;;;;;;;13.95;10.88;;;;;;;-146.90;100.00;60518.97;5029805;28;20108;-71
2021/09/10 08:39:46;;;;;;;13.75;10.10;;;;;;;-146.90;100.00;60518.97;5028391;28;20025;-71
2021/09/10 08:42:12;;;;;;;13.38;9.73;;;;;;;-146.90;100.00;60518.97;5030287;28;20018;-71
2021/09/10 08:44:39;;;;;;;11.43;8.25;;;;;;;-146.90;100.00;60518.97;5029603;28;20813;-71
2021/09/10 08:47:05;;;;;;;10.90;8.02;;;;;;;-146.90;100.00;60518.97;5031953;28;20389;-72
2021/09/10 08:49:30;;;;;;;12.25;7.90;;;;;;;-146.90;100.00;60518.97;5034458;28;20021;-70
2021/09/10 08:51:56;;;;;;;14.70;9.15;;;;;;;-146.90;100.00;60518.97;5034916;28;20033;-70
2021/09/10 08:54:21;;;;;;;12.55;7.80;;;;;;;-146.90;100.00;60518.97;5033350;28;20079;-71
2021/09/10 08:56:46;;;;;;;13.23;8.23;;;;;;;-146.90;100.00;60518.97;5034596;28;20025;-70
2021/09/10 08:59:17;;;;;;;15.05;9.85;;;;;;;-146.90;100.00;60518.97;5034019;28;20048;-71
2021/09/10 09:01:53;;;;;;;16.98;9.82;;;;;;;-146.90;100.00;60518.97;5034185;28;20056;-74
2021/09/10 09:04:21;;;;;;;12.88;9.20;;;;;;;-146.90;100.00;60518.97;5033826;28;20047;-72
2021/09/10 09:06:52;;;;;;;12.40;8.55;;;;;;;-146.90;100.00;60518.97;5033631;28;20099;-71
2021/09/10 09:09:45;;;;;;;16.05;9.30;;;;;;;-146.90;100.00;60518.97;5034476;28;20025;-71
2021/09/10 09:12:10;;;;;;;16.83;9.30;;;;;;;-146.90;100.00;60518.97;5034146;28;20375;-71
2021/09/10 09:14:55;;;;;;;15.20;9.13;;;;;;;-146.90;100.00;60518.97;5033869;28;20028;-70
2021/09/10 09:17:21;;;;;;;12.40;8.80;;;;;;;-146.90;100.00;60518.97;5034318;28;20267;-71
2021/09/10 09:19:51;;;;;;;12.32;8.82;;;;;;;-146.90;100.00;60518.97;5033591;28;20037;-70
2021/09/10 09:22:16;;;;;;;12.85;8.38;;;;;;;-146.90;100.00;60518.97;5032725;28;20029;-71
2021/09/10 09:24:41;;;;;;;17.98;9.85;;;;;;;-146.90;100.00;60518.97;5033331;28;20083;-70
2021/09/10 09:27:11;;;;;;;14.02;11.82;;;;;;;-146.90;100.00;60518.97;5033068;28;20025;-71
2021/09/10 09:29:50;;;;;;;19.65;14.20;;;;;;;-146.90;100.00;60518.97;5033580;28;20028;-71
2021/09/10 09:32:16;;;;;;;21.25;15.90;;;;;;;-146.90;100.00;60518.97;5032625;28;20026;-69
2021/09/10 09:34:44;;;;;;;25.25;20.70;;;;;;;-146.90;100.00;60518.97;5015483;28;20021;-71
2021/09/10 09:37:09;;;;;;;25.88;22.17;;;;;;;-146.90;100.00;60518.97;5032009;28;20072;-71
2021/09/10 09:39:54;;;;;;;30.02;23.65;;;;;;;-146.90;100.00;60518.97;5033302;28;20551;-72
2021/09/10 09:42:30;;;;;;;26.50;22.10;;;;;;;-146.90;100.00;60518.97;5033541;28;20067;-71
2021/09/10 09:45:13;;;;;;;28.52;21.88;;;;;;;-146.90;100.00;60518.97;5031605;28;20140;-71
2021/09/10 09:47:40;;;;;;;26.08;21.38;;;;;;;-146.90;100.00;60518.97;5016020;28;20079;-71
2021/09/10 09:50:13;;;;;;;22.13;19.83;;;;;;;-146.90;100.00;60518.97;5034194;28;20021;-70
2021/09/10 09:52:39;;;;;;;24.50;20.10;;;;;;;-146.90;100.00;60518.97;5032899;28;20025;-71
2021/09/10 09:55:06;;;;;;;24.42;20.10;;;;;;;-146.90;100.00;60518.97;5033938;28;20413;-72
2021/09/10 09:57:31;;;;;;;22.95;18.73;;;;;;;-146.90;100.00;60518.97;5032299;28;20479;-71
2021/09/10 09:59:57;;;;;;;21.83;17.13;;;;;;;-146.90;100.00;60518.97;5032917;28;20040;-70
2021/09/10 10:02:23;;;;;;;23.20;17.55;;;;;;;-146.90;100.00;60518.97;5032840;28;20382;-70
2021/09/10 10:04:48;;;;;;;24.70;18.30;;;;;;;-146.90;100.00;60518.97;5032045;28;20044;-70
2021/09/10 10:07:15;;;;;;;21.77;18.25;;;;;;;-146.90;100.00;60518.97;5031159;28;20433;-70
2021/09/10 10:09:41;;;;;;;23.58;18.38;;;;;;;-146.90;100.00;60518.97;5029957;28;20021;-70
2021/09/10 10:12:08;;;;;;;20.90;17.65;;;;;;;-146.90;100.00;60518.97;5029811;28;20022;-72
2021/09/10 10:14:37;;;;;;;24.08;19.05;;;;;;;-146.90;100.00;60518.97;5029981;28;20013;-71
2021/09/10 10:17:03;;;;;;;21.55;19.23;;;;;;;-146.90;100.00;60518.97;5029761;28;20380;-72
2021/09/10 10:19:36;;;;;;;26.52;20.45;;;;;;;-146.90;100.00;60518.97;5030057;28;20052;-69
2021/09/10 10:22:07;;;;;;;23.55;17.50;;;;;;;-146.90;100.00;60518.97;5031725;28;20116;-71
2021/09/10 10:24:56;;;;;;;21.52;17.35;;;;;;;-146.90;100.00;60518.97;5029739;28;20515;-71
2021/09/10 10:27:40;;;;;;;20.83;17.38;;;;;;;-146.90;100.00;60518.97;5029584;28;20025;-72
2021/09/10 10:30:06;;;;;;;;;;;;;;;-146.90;100.00;60518.97;5031394;28;20021;-70
2021/09/10 10:32:38;;;;;;;18.95;14.52;;;;;;;-146.90;100.00;60518.97;5031218;28;19909;-70
2021/09/10 10:35:30;;;;;;;14.65;12.70;;;;;;;-146.90;100.00;60518.97;5030863;28;20021;-71
2021/09/10 10:38:01;;;;;;;16.17;12.73;;;;;;;-146.90;100.00;60518.97;5030881;28;20393;-70
2021/09/10 10:40:38;;;;;;;18.92;13.30;;;;;;;-146.90;100.00;60518.97;5030790;28;20471;-70
2021/09/10 10:43:12;;;;;;;16.40;12.48;;;;;;;-146.90;100.00;60518.97;5030771;28;20437;-71
2021/09/10 10:45:40;;;;;;;16.27;11.68;;;;;;;-146.90;100.00;60518.97;5013071;28;20712;-70
2021/09/10 10:48:32;;;;;;;14.93;11.32;;;;;;;-146.90;100.00;60518.97;5030721;28;20356;-70
2021/09/10 10:51:01;;;;;;;16.30;11.82;;;;;;;-146.90;100.00;60518.97;5030646;28;20025;-70